Time;durP1;ratioP1;P1;durP2;ratioP2;P2;SDS_P1;SDS_P2;PMS_P1;PMS_P2;Temp;Humidity;BMP_temperature;BMP_pressure;BME280_temperature;BME280_humidity;BME280_pressure;Samples;Min_cycle;Max_cycle;Signal;HPM_P1;HPM_P2
2021/11/13 09:41:10;;;;;;;80.55;33.92;;;;;;;10.36;100.00;101055.88;2632165;36;20082;-71
2021/11/13 09:43:48;;;;;;;85.97;35.40;;;;;;;10.15;100.00;101067.41;2614594;36;20059;-68
2021/11/13 09:46:17;;;;;;;89.80;33.67;;;;;;;10.17;100.00;101062.75;2614955;36;20047;-70
2021/11/13 09:48:45;;;;;;;78.45;31.60;;;;;;;10.28;100.00;101064.56;2615297;36;20061;-68
2021/11/13 09:51:14;;;;;;;82.93;34.00;;;;;;;10.36;100.00;101069.31;2615611;36;20549;-68
2021/11/13 09:53:43;;;;;;;77.75;33.55;;;;;;;10.52;100.00;101065.19;2616045;36;20067;-68
2021/11/13 09:56:14;;;;;;;80.00;32.22;;;;;;;10.46;100.00;101075.63;2615656;36;20061;-69
2021/11/13 09:58:47;;;;;;;72.10;32.13;;;;;;;10.54;100.00;101074.97;2615639;36;20023;-68
2021/11/13 10:01:23;;;;;;;74.10;31.08;;;;;;;10.60;100.00;101077.13;2616062;36;20054;-69
2021/11/13 10:03:51;;;;;;;75.25;33.05;;;;;;;10.57;100.00;101080.09;2615358;36;20038;-69
2021/11/13 10:06:20;;;;;;;68.70;31.45;;;;;;;10.68;100.00;101082.72;2615945;36;20038;-69
2021/11/13 10:08:50;;;;;;;77.20;34.90;;;;;;;10.80;100.00;101089.75;2615748;31;20035;-72
2021/11/13 10:11:23;;;;;;;70.00;32.88;;;;;;;10.68;100.00;101080.03;2616661;36;20423;-69
2021/11/13 10:13:54;;;;;;;68.47;30.85;;;;;;;10.85;100.00;101087.53;2615863;36;20034;-68
2021/11/13 10:16:31;;;;;;;63.75;30.05;;;;;;;11.15;100.00;101083.13;2616147;36;20031;-68
2021/11/13 10:19:19;;;;;;;66.03;30.95;;;;;;;11.30;100.00;101090.88;2616090;36;20035;-68
2021/11/13 10:21:50;;;;;;;64.23;30.53;;;;;;;11.13;100.00;101084.25;2616609;36;20567;-71
2021/11/13 10:42:45;;;;;;;49.03;25.20;;;;;;;11.54;100.00;101096.78;2633648;36;20528;-69
2021/11/13 10:45:13;;;;;;;44.00;25.20;;;;;;;11.46;100.00;101095.75;2616670;36;20061;-69
2021/11/13 10:48:24;;;;;;;44.53;25.92;;;;;;;11.57;100.00;101098.34;2616620;36;20072;-69
2021/11/13 10:50:53;;;;;;;43.15;24.83;;;;;;;11.78;100.00;101108.19;2616768;36;20037;-72
2021/11/13 10:53:28;;;;;;;39.05;22.08;;;;;;;11.65;100.00;101103.06;2618103;31;20038;-69
2021/11/13 10:56:24;;;;;;;37.25;21.73;;;;;;;11.86;100.00;101101.13;2614363;36;20035;-72
2021/11/13 10:58:58;;;;;;;37.33;21.75;;;;;;;11.84;100.00;101100.41;2615874;36;20030;-69
2021/11/13 11:01:34;;;;;;;34.63;20.42;;;;;;;11.97;100.00;101110.09;2617002;36;20031;-73
2021/11/13 11:04:12;;;;;;;29.48;18.80;;;;;;;12.11;100.00;101101.63;2616953;36;20058;-68
2021/11/13 11:06:41;;;;;;;28.98;18.67;;;;;;;11.79;100.00;101097.25;2617267;36;20035;-69
2021/11/13 11:09:23;;;;;;;;;;;;;;;11.81;100.00;101108.78;2617403;31;20154;-69
2021/11/13 11:11:53;;;;;;;35.85;19.08;;;;;;;11.67;100.00;101106.47;2616708;36;19981;-69
2021/11/13 11:14:24;;;;;;;38.05;20.75;;;;;;;11.95;100.00;101112.09;2616721;36;20026;-69
2021/11/13 11:16:54;;;;;;;45.00;25.50;;;;;;;12.08;100.00;101108.13;2616350;36;20034;-70
2021/11/13 11:19:28;;;;;;;41.05;25.13;;;;;;;12.15;100.00;101108.44;2616565;36;20070;-71
2021/11/13 11:22:02;;;;;;;28.48;17.40;;;;;;;12.16;100.00;101104.75;2616766;36;20030;-71
2021/11/13 11:24:37;;;;;;;27.27;18.55;;;;;;;12.37;100.00;101110.03;2616800;36;20467;-69
2021/11/13 11:27:11;;;;;;;29.30;19.95;;;;;;;12.30;100.00;101105.34;2616390;36;20598;-70
2021/11/13 11:29:45;;;;;;;23.30;16.98;;;;;;;12.27;100.00;101101.06;2617069;36;20439;-70
2021/11/13 11:32:15;;;;;;;29.98;18.52;;;;;;;12.44;100.00;101103.06;2616600;31;20038;-72
2021/11/13 11:34:46;;;;;;;;;;;;;;;12.83;100.00;101107.56;2616574;36;20535;-69
2021/11/13 11:37:18;;;;;;;24.67;17.35;;;;;;;12.88;100.00;101091.78;2616131;36;19946;-70
2021/11/13 11:42:59;;;;;;;22.17;15.35;;;;;;;12.89;100.00;101107.00;2615848;36;20556;-69
2021/11/13 11:45:33;;;;;;;21.92;15.25;;;;;;;13.09;100.00;101098.84;2616402;36;20540;-69
2021/11/13 11:48:01;;;;;;;21.90;15.57;;;;;;;13.07;100.00;101103.53;2616327;36;20062;-69
2021/11/13 11:50:34;;;;;;;20.80;14.68;;;;;;;13.06;100.00;101094.59;2615979;36;20039;-70
2021/11/13 11:53:09;;;;;;;19.20;13.98;;;;;;;12.91;100.00;101090.63;2617109;36;20090;-73
2021/11/13 11:55:38;;;;;;;18.60;12.95;;;;;;;12.93;100.00;101086.78;2616565;36;20038;-70
2021/11/13 11:58:09;;;;;;;18.10;13.48;;;;;;;12.99;100.00;101098.03;2616898;31;20497;-73
2021/11/13 12:00:39;;;;;;;20.58;12.73;;;;;;;13.18;100.00;101099.81;2616319;36;20035;-71
2021/11/13 12:03:08;;;;;;;16.23;11.00;;;;;;;13.44;100.00;101100.00;2617005;36;20416;-71
2021/11/13 12:05:40;;;;;;;16.70;11.23;;;;;;;13.39;100.00;101096.94;2616385;36;20034;-72
2021/11/13 12:08:19;;;;;;;16.67;11.43;;;;;;;13.50;100.00;101088.63;2615677;36;20046;-69
2021/11/13 12:10:47;;;;;;;17.65;10.52;;;;;;;13.31;100.00;101101.19;2615847;31;20023;-70
2021/11/13 12:13:18;;;;;;;14.93;11.20;;;;;;;13.34;100.00;101100.06;2615367;36;20552;-69
2021/11/13 12:15:49;;;;;;;13.82;9.38;;;;;;;13.48;100.00;101101.44;2616175;36;20031;-70
2021/11/13 12:18:20;;;;;;;11.35;7.80;;;;;;;13.40;100.00;101098.63;2614107;36;20031;-73
2021/11/13 12:20:55;;;;;;;10.85;6.53;;;;;;;13.27;100.00;101099.78;2616632;36;20065;-70
2021/11/13 12:27:07;;;;;;;9.48;6.45;;;;;;;13.34;100.00;101100.06;2632106;36;20054;-70
2021/11/13 12:29:49;;;;;;;11.07;7.35;;;;;;;13.36;100.00;101108.03;2614112;31;22346;-69
2021/11/13 12:32:17;;;;;;;11.10;7.57;;;;;;;13.34;100.00;101102.78;2614321;36;20022;-73
2021/11/13 12:34:55;;;;;;;9.00;7.18;;;;;;;13.29;100.00;101105.91;2615498;36;20102;-73
2021/11/13 12:37:27;;;;;;;10.55;7.05;;;;;;;13.35;100.00;101114.44;2616182;36;20061;-73
2021/11/13 12:39:57;;;;;;;12.98;7.50;;;;;;;13.34;100.00;101119.00;2616725;36;20038;-70
2021/11/13 12:42:27;;;;;;;10.50;7.82;;;;;;;13.18;100.00;101111.47;2616453;36;20030;-70
2021/11/13 12:44:58;;;;;;;13.82;8.95;;;;;;;12.74;100.00;101119.25;2614853;36;20037;-70
2021/11/13 12:47:29;;;;;;;15.18;10.05;;;;;;;12.47;100.00;101123.53;2615518;36;20125;-72
2021/11/13 12:49:59;;;;;;;20.58;10.20;;;;;;;12.41;100.00;101121.38;2615383;36;20034;-69
2021/11/13 12:52:43;;;;;;;17.08;10.30;;;;;;;12.35;100.00;101124.66;2615081;36;20085;-70
2021/11/13 12:58:12;;;;;;;18.88;11.43;;;;;;;12.37;100.00;101133.47;2633193;36;20023;-73
2021/11/13 13:00:45;;;;;;;19.20;12.82;;;;;;;12.29;100.00;101130.63;2615839;36;20571;-70
2021/11/13 13:03:26;;;;;;;20.27;12.00;;;;;;;12.30;100.00;101137.72;2615530;54;20018;-73
2021/11/13 13:05:54;;;;;;;16.63;11.30;;;;;;;12.28;100.00;101143.28;2615814;36;20031;-69
2021/11/13 13:08:34;;;;;;;15.55;11.85;;;;;;;12.20;100.00;101146.63;2615441;36;20642;-72
2021/11/13 13:11:04;;;;;;;19.83;12.18;;;;;;;12.04;100.00;101154.44;2614133;36;20116;-69
2021/11/13 13:13:37;;;;;;;14.73;8.98;;;;;;;11.99;100.00;101154.00;2615120;36;20046;-70
2021/11/13 13:16:06;;;;;;;14.63;9.18;;;;;;;11.97;100.00;101155.97;2616093;36;20062;-69
2021/11/13 13:18:35;;;;;;;17.83;10.68;;;;;;;11.98;100.00;101157.69;2615173;36;20035;-69
2021/11/13 13:21:04;;;;;;;18.05;12.25;;;;;;;11.97;100.00;101156.84;2615870;31;20050;-70
2021/11/13 13:23:35;;;;;;;19.88;13.38;;;;;;;11.98;100.00;101154.97;2615813;36;20053;-72
2021/11/13 13:26:08;;;;;;;21.42;13.40;;;;;;;12.14;100.00;101163.41;2616329;36;20061;-70
2021/11/13 13:28:37;;;;;;;19.25;13.27;;;;;;;12.44;100.00;101167.00;2615251;36;20042;-70
2021/11/13 13:31:09;;;;;;;26.30;16.40;;;;;;;12.26;100.00;101153.34;2615570;36;20042;-70
2021/11/13 13:33:38;;;;;;;19.15;11.98;;;;;;;12.23;100.00;101161.72;2616554;36;20130;-71
2021/11/13 13:38:42;;;;;;;22.27;13.43;;;;;;;12.09;100.00;101162.97;2613375;36;20093;-70
2021/11/13 13:41:11;;;;;;;21.35;14.85;;;;;;;11.99;100.00;101167.50;2615658;36;20569;-70
2021/11/13 13:43:43;;;;;;;19.88;13.73;;;;;;;12.12;100.00;101169.91;2614971;36;20167;-69
2021/11/13 13:46:14;;;;;;;21.85;13.43;;;;;;;11.83;100.00;101168.81;2615887;36;20027;-70
2021/11/13 13:48:45;;;;;;;20.38;12.57;;;;;;;11.77;100.00;101169.38;2616329;36;20051;-69
2021/11/13 13:51:17;;;;;;;19.42;13.63;;;;;;;11.59;100.00;101166.47;2617534;36;20055;-69
2021/11/13 13:53:54;;;;;;;20.33;13.20;;;;;;;11.72;100.00;101179.72;2616357;36;20599;-69
2021/11/13 13:56:25;;;;;;;20.67;12.38;;;;;;;11.67;100.00;101174.72;2616711;31;20543;-69
2021/11/13 13:58:56;;;;;;;21.67;13.55;;;;;;;11.61;100.00;101169.88;2617328;36;20070;-73
2021/11/13 14:01:25;;;;;;;24.20;14.10;;;;;;;11.58;100.00;101170.97;2616167;36;20047;-70
2021/11/13 14:03:54;;;;;;;21.48;13.85;;;;;;;11.55;100.00;101179.34;2615422;36;20067;-70
2021/11/13 14:06:26;;;;;;;22.05;13.15;;;;;;;11.56;100.00;101178.38;2617271;31;20030;-73
2021/11/13 14:08:56;;;;;;;20.02;12.85;;;;;;;11.47;100.00;101183.69;2617142;36;20030;-69
2021/11/13 14:11:26;;;;;;;19.58;13.10;;;;;;;11.40;100.00;101188.78;2616261;36;20047;-69
2021/11/13 14:13:55;;;;;;;18.67;12.27;;;;;;;11.40;100.00;101189.63;2616607;36;20093;-72
2021/11/13 14:16:23;;;;;;;17.67;11.73;;;;;;;11.40;100.00;101203.09;2615626;36;20102;-73
2021/11/13 14:18:52;;;;;;;23.40;12.57;;;;;;;11.39;100.00;101198.72;2616308;36;20042;-72
2021/11/13 14:21:26;;;;;;;19.83;12.60;;;;;;;11.32;100.00;101204.75;2616675;36;20090;-72
2021/11/13 14:23:57;;;;;;;16.88;11.52;;;;;;;11.25;100.00;101203.56;2616596;31;20041;-69
2021/11/13 14:26:29;;;;;;;18.30;11.20;;;;;;;11.17;100.00;101217.72;2616525;36;20026;-68
2021/11/13 14:29:01;;;;;;;18.35;11.75;;;;;;;11.04;100.00;101220.59;2617101;36;20030;-71
2021/11/13 14:31:32;;;;;;;20.70;11.55;;;;;;;10.99;100.00;101217.44;2617370;31;20026;-72
2021/11/13 14:34:04;;;;;;;20.38;12.77;;;;;;;10.91;100.00;101222.59;2616511;36;20586;-74
2021/11/13 14:36:35;;;;;;;18.80;12.75;;;;;;;10.86;100.00;101229.25;2616760;36;20045;-69
2021/11/13 14:41:58;;;;;;;21.00;12.15;;;;;;;10.80;100.00;101232.44;2615687;36;20038;-69
2021/11/13 14:44:29;;;;;;;22.67;13.48;;;;;;;10.76;100.00;101240.91;2616221;36;20034;-70
2021/11/13 14:47:01;;;;;;;21.17;12.35;;;;;;;10.68;100.00;101246.94;2616043;36;20061;-69
2021/11/13 14:49:32;;;;;;;23.85;13.20;;;;;;;10.62;100.00;101247.47;2615523;36;20130;-69
2021/11/13 14:52:02;;;;;;;22.73;12.25;;;;;;;10.66;100.00;101249.75;2615975;36;20151;-72
2021/11/13 14:54:33;;;;;;;21.90;13.82;;;;;;;10.62;100.00;101253.69;2615092;36;20038;-69
2021/11/13 14:57:06;;;;;;;22.48;12.25;;;;;;;10.63;100.00;101259.91;2616450;36;20523;-70
2021/11/13 14:59:38;;;;;;;20.55;12.02;;;;;;;10.68;100.00;101257.72;2616104;36;20034;-70
2021/11/13 15:02:07;;;;;;;18.27;12.05;;;;;;;10.65;100.00;101261.50;2615550;36;20038;-69
2021/11/13 15:04:37;;;;;;;16.77;11.43;;;;;;;10.68;100.00;101257.72;2616461;31;20653;-70
2021/11/13 15:07:09;;;;;;;19.88;13.00;;;;;;;10.76;100.00;101262.44;2615206;36;20109;-70
2021/11/13 15:09:49;;;;;;;21.60;12.40;;;;;;;10.72;100.00;101263.69;2615446;36;20085;-70
2021/11/13 15:12:18;;;;;;;21.05;12.07;;;;;;;10.76;100.00;101265.16;2614841;36;20043;-67
2021/11/13 15:14:48;;;;;;;19.38;13.75;;;;;;;10.77;100.00;101272.25;2616609;31;20493;-72
2021/11/13 15:17:18;;;;;;;21.85;12.60;;;;;;;10.73;100.00;101277.00;2615521;36;20035;-69
2021/11/13 15:19:49;;;;;;;19.30;13.73;;;;;;;10.66;100.00;101281.22;2616386;36;20531;-71
2021/11/13 15:22:27;;;;;;;20.52;12.60;;;;;;;10.72;100.00;101279.84;2616072;31;20058;-69
2021/11/13 15:24:58;;;;;;;22.23;13.88;;;;;;;10.71;100.00;101281.69;2616744;36;20439;-70
2021/11/13 15:27:35;;;;;;;29.55;14.15;;;;;;;10.70;100.00;101282.66;2615413;36;20082;-71
2021/11/13 15:30:03;;;;;;;26.95;14.98;;;;;;;10.75;100.00;101280.44;2615606;36;20054;-71
2021/11/13 15:32:34;;;;;;;26.53;14.40;;;;;;;10.77;100.00;101293.78;2616490;36;20095;-70
2021/11/13 15:35:12;;;;;;;20.95;14.45;;;;;;;10.76;100.00;101298.34;2614752;54;20087;-69
2021/11/13 15:37:40;;;;;;;20.58;14.07;;;;;;;10.78;100.00;101287.44;2616977;36;20118;-70
2021/11/13 15:40:15;;;;;;;26.30;15.25;;;;;;;10.78;100.00;101293.66;2616759;36;20174;-71
2021/11/13 15:42:47;;;;;;;21.08;13.98;;;;;;;10.82;100.00;101297.81;2617323;36;20031;-71
2021/11/13 15:45:21;;;;;;;24.90;14.60;;;;;;;10.85;100.00;101294.88;2616967;36;20029;-72
2021/11/13 15:48:05;;;;;;;23.23;14.73;;;;;;;10.89;100.00;101305.38;2616721;36;20045;-71
2021/11/13 15:50:34;;;;;;;25.48;14.75;;;;;;;10.77;100.00;101300.00;2616754;36;20121;-70
2021/11/13 15:56:05;;;;;;;24.13;16.30;;;;;;;10.71;100.00;101311.28;2616174;36;20029;-69
2021/11/13 15:58:36;;;;;;;27.08;17.00;;;;;;;10.66;100.00;101313.53;2615255;36;20043;-69
2021/11/13 16:01:05;;;;;;;26.92;16.75;;;;;;;10.66;100.00;101313.53;2616702;36;20040;-70
2021/11/13 16:03:33;;;;;;;24.63;15.23;;;;;;;10.75;100.00;101318.16;2616111;36;20151;-68
2021/11/13 16:06:01;;;;;;;23.70;16.42;;;;;;;10.80;100.00;101320.47;2615218;36;20030;-70
2021/11/13 16:08:30;;;;;;;27.92;18.48;;;;;;;10.80;100.00;101329.38;2616618;36;20091;-69
2021/11/13 16:10:58;;;;;;;24.03;15.53;;;;;;;10.73;100.00;101330.84;2615315;31;20630;-69
2021/11/13 16:13:29;;;;;;;25.17;17.05;;;;;;;10.71;100.00;101335.53;2615623;36;20066;-70
2021/11/13 16:16:04;;;;;;;25.38;16.77;;;;;;;10.76;100.00;101335.16;2617324;31;20560;-69
2021/11/13 16:21:31;;;;;;;27.60;18.27;;;;;;;10.69;100.00;101337.50;2615743;36;20031;-69
2021/11/13 16:24:02;;;;;;;28.35;16.75;;;;;;;10.50;100.00;101346.22;2615122;36;20034;-72
2021/11/13 16:26:30;;;;;;;25.88;17.92;;;;;;;10.45;100.00;101351.97;2615719;36;20030;-69
2021/11/13 16:29:02;;;;;;;30.73;18.20;;;;;;;10.49;100.00;101358.78;2615432;36;20061;-69
2021/11/13 16:31:31;;;;;;;32.15;19.45;;;;;;;10.55;100.00;101359.28;2616865;31;20549;-69
2021/11/13 16:33:59;;;;;;;34.33;20.20;;;;;;;10.51;100.00;101359.53;2615899;31;20055;-69
2021/11/13 16:36:27;;;;;;;32.10;19.48;;;;;;;10.55;100.00;101364.69;2615117;36;20347;-71
2021/11/13 16:38:56;;;;;;;34.60;19.43;;;;;;;10.52;100.00;101366.63;2616637;36;20037;-69
2021/11/13 16:41:24;;;;;;;33.08;20.52;;;;;;;10.52;100.00;101363.91;2614223;36;20358;-69
2021/11/13 16:43:58;;;;;;;27.77;19.02;;;;;;;10.47;100.00;101368.00;2616080;36;20042;-69
2021/11/13 16:46:31;;;;;;;31.65;20.45;;;;;;;10.41;100.00;101377.41;2616098;36;20077;-73
2021/11/13 16:48:59;;;;;;;32.65;18.55;;;;;;;10.42;100.00;101378.25;2615257;36;20038;-72
2021/11/13 16:51:31;;;;;;;28.35;18.95;;;;;;;10.46;100.00;101377.03;2616636;36;20446;-69
2021/11/13 16:54:00;;;;;;;31.52;19.45;;;;;;;10.38;100.00;101380.34;2615658;36;20076;-69
2021/11/13 16:56:30;;;;;;;28.37;19.17;;;;;;;10.41;100.00;101390.88;2615461;36;20034;-69
2021/11/13 16:58:59;;;;;;;29.13;19.02;;;;;;;10.37;100.00;101383.16;2614667;36;20049;-69
2021/11/13 17:01:33;;;;;;;28.60;19.42;;;;;;;10.34;100.00;101395.00;2615980;36;20523;-71
2021/11/13 17:04:07;;;;;;;35.97;20.35;;;;;;;10.33;100.00;101393.25;2615368;31;20070;-69
2021/11/13 17:06:39;;;;;;;32.35;22.02;;;;;;;10.36;100.00;101395.72;2616153;36;20048;-69
2021/11/13 17:09:11;;;;;;;36.28;23.08;;;;;;;10.32;100.00;101405.00;2614101;36;20065;-69
2021/11/13 17:11:42;;;;;;;31.58;20.88;;;;;;;10.34;100.00;101395.00;2616200;36;20026;-70
2021/11/13 17:14:12;;;;;;;36.88;24.73;;;;;;;10.34;100.00;101403.09;2616101;36;20058;-72
2021/11/13 17:16:52;;;;;;;37.63;23.92;;;;;;;10.30;100.00;101405.13;2615248;36;20543;-69
2021/11/13 17:19:20;;;;;;;32.00;21.52;;;;;;;10.33;100.00;101404.94;2615925;36;20030;-72
2021/11/13 17:21:49;;;;;;;30.05;20.65;;;;;;;10.34;100.00;101412.00;2616715;36;20057;-69
2021/11/13 17:24:20;;;;;;;36.92;23.60;;;;;;;10.21;100.00;101415.75;2617119;36;20030;-69
2021/11/13 17:26:48;;;;;;;36.70;22.10;;;;;;;10.24;100.00;101418.22;2616476;36;20049;-72
2021/11/13 17:29:16;;;;;;;32.75;22.33;;;;;;;10.29;100.00;101429.44;2615361;36;20089;-72
2021/11/13 17:31:48;;;;;;;36.65;23.92;;;;;;;10.32;100.00;101423.81;2615134;31;20523;-72
2021/11/13 17:34:17;;;;;;;36.60;24.33;;;;;;;10.30;100.00;101434.72;2615142;36;20062;-73
2021/11/13 17:36:45;;;;;;;32.63;21.27;;;;;;;10.34;100.00;101438.06;2615937;36;20077;-69
2021/11/13 17:39:14;;;;;;;33.45;21.90;;;;;;;10.36;100.00;101433.41;2616757;36;20092;-71
2021/11/13 17:41:43;;;;;;;29.08;20.67;;;;;;;10.37;100.00;101434.28;2616371;36;20034;-70
2021/11/13 17:44:11;;;;;;;33.17;22.25;;;;;;;10.29;100.00;101435.72;2617125;36;20034;-70
2021/11/13 17:46:39;;;;;;;32.17;21.30;;;;;;;10.32;100.00;101434.59;2617294;36;20122;-70
2021/11/13 17:49:10;;;;;;;35.95;22.52;;;;;;;10.29;100.00;101434.81;2616528;31;20740;-71
2021/11/13 17:51:39;;;;;;;32.10;21.75;;;;;;;10.30;100.00;101444.63;2617545;31;20082;-72
2021/11/13 17:54:07;;;;;;;31.45;20.77;;;;;;;10.26;100.00;101448.53;2616768;36;20053;-71
2021/11/13 17:56:36;;;;;;;31.80;22.23;;;;;;;10.30;100.00;101448.16;2615787;31;20587;-70
2021/11/13 17:59:04;;;;;;;27.95;19.55;;;;;;;10.28;100.00;101454.66;2615407;36;20085;-70
2021/11/13 18:01:35;;;;;;;31.50;20.65;;;;;;;10.30;100.00;101458.06;2617252;36;20077;-68
2021/11/13 18:04:03;;;;;;;30.35;20.38;;;;;;;10.14;100.00;101459.28;2615841;36;20038;-68
2021/11/13 18:06:34;;;;;;;29.80;19.23;;;;;;;10.21;100.00;101467.72;2617456;36;20206;-70
2021/11/13 18:09:02;;;;;;;29.00;20.35;;;;;;;10.26;100.00;101470.03;2617192;36;20280;-69
2021/11/13 18:11:35;;;;;;;34.55;23.48;;;;;;;10.26;100.00;101470.03;2617109;36;20629;-69
2021/11/13 18:14:03;;;;;;;31.45;20.35;;;;;;;10.23;100.00;101478.34;2615367;36;20057;-68
2021/11/13 18:16:31;;;;;;;33.47;21.50;;;;;;;10.29;100.00;101467.13;2615722;36;20097;-68
2021/11/13 18:19:00;;;;;;;32.05;23.25;;;;;;;10.32;100.00;101473.13;2614587;31;20026;-71
2021/11/13 18:21:29;;;;;;;33.78;22.48;;;;;;;10.29;100.00;101485.94;2616179;36;20518;-68
2021/11/13 18:24:02;;;;;;;42.90;31.48;;;;;;;10.29;100.00;101489.50;2616673;36;20035;-69
2021/11/13 18:26:31;;;;;;;43.95;31.17;;;;;;;10.29;100.00;101488.63;2614031;36;20019;-69
2021/11/13 18:28:59;;;;;;;42.33;29.70;;;;;;;10.26;100.00;101491.56;2616237;36;20034;-71
2021/11/13 18:31:27;;;;;;;41.47;28.27;;;;;;;10.24;100.00;101494.38;2616997;31;20484;-71
2021/11/13 18:33:57;;;;;;;41.00;25.70;;;;;;;10.24;100.00;101496.22;2615769;36;20046;-68
2021/11/13 18:36:25;;;;;;;44.38;27.40;;;;;;;10.10;100.00;101500.84;2616873;31;20103;-69
2021/11/13 18:38:54;;;;;;;43.65;27.60;;;;;;;10.19;100.00;101507.34;2616958;36;20030;-69
2021/11/13 18:41:25;;;;;;;42.93;27.77;;;;;;;10.16;100.00;101500.34;2617588;31;20500;-67
2021/11/13 18:43:53;;;;;;;42.83;28.05;;;;;;;10.20;100.00;101502.81;2615945;36;20361;-68
2021/11/13 18:49:15;;;;;;;37.90;24.70;;;;;;;10.12;100.00;101512.31;2615784;36;20039;-69
2021/11/13 18:51:44;;;;;;;38.83;25.47;;;;;;;10.04;100.00;101505.81;2617017;36;20089;-68
2021/11/13 18:54:12;;;;;;;36.55;23.55;;;;;;;10.05;100.00;101508.38;2616550;36;20042;-68
2021/11/13 18:56:43;;;;;;;38.23;25.70;;;;;;;9.98;100.00;101507.13;2616331;36;20077;-68
2021/11/13 18:59:12;;;;;;;40.53;26.55;;;;;;;9.91;100.00;101506.75;2616838;36;20153;-69
2021/11/13 19:01:40;;;;;;;33.25;24.05;;;;;;;9.92;100.00;101510.28;2616965;31;20513;-69
2021/11/13 19:04:13;;;;;;;44.13;27.77;;;;;;;9.97;100.00;101513.50;2617008;36;20124;-69
2021/11/13 19:06:41;;;;;;;33.22;24.23;;;;;;;9.85;100.00;101517.09;2617105;31;20026;-68
2021/11/13 19:09:10;;;;;;;41.20;24.40;;;;;;;9.91;100.00;101522.88;2616693;36;20031;-69
2021/11/13 19:11:38;;;;;;;33.05;24.50;;;;;;;9.92;100.00;101512.97;2616203;36;20035;-70
2021/11/13 19:14:09;;;;;;;37.65;24.88;;;;;;;9.81;100.00;101521.84;2613284;36;20037;-69
2021/11/13 19:16:38;;;;;;;33.15;22.88;;;;;;;9.79;100.00;101524.66;2612026;36;20034;-69
2021/11/13 19:19:06;;;;;;;38.22;24.05;;;;;;;9.75;100.00;101522.31;2611444;36;20125;-69
2021/11/13 19:21:35;;;;;;;31.33;21.97;;;;;;;9.85;100.00;101528.72;2612209;36;20034;-68
2021/11/13 19:24:04;;;;;;;47.95;29.17;;;;;;;9.84;100.00;101535.06;2611855;36;20034;-70
2021/11/13 19:26:32;;;;;;;39.67;25.73;;;;;;;9.84;100.00;101532.38;2611902;36;20165;-71
2021/11/13 19:29:01;;;;;;;38.13;23.58;;;;;;;9.87;100.00;101542.06;2612560;31;20189;-73
2021/11/13 19:31:32;;;;;;;;;;;;;;;9.92;100.00;101531.81;2612306;31;20151;-71
2021/11/13 19:34:01;;;;;;;43.10;27.00;;;;;;;9.82;100.00;101545.94;2612023;31;19981;-72
2021/11/13 19:36:29;;;;;;;45.13;29.15;;;;;;;9.77;100.00;101536.50;2611700;36;20088;-69
2021/11/13 19:38:57;;;;;;;47.33;28.27;;;;;;;9.88;100.00;101538.38;2611913;36;20757;-70
2021/11/13 19:41:27;;;;;;;47.80;30.77;;;;;;;9.87;100.00;101534.00;2612130;36;20170;-69
2021/11/13 19:43:56;;;;;;;48.60;28.05;;;;;;;9.92;100.00;101539.88;2610868;36;20034;-70
2021/11/13 19:46:29;;;;;;;47.03;31.90;;;;;;;9.92;100.00;101540.75;2611700;36;20146;-70
2021/11/13 19:49:00;;;;;;;43.22;28.73;;;;;;;9.96;100.00;101539.50;2613280;36;20130;-70
2021/11/13 19:51:32;;;;;;;42.90;28.20;;;;;;;10.00;100.00;101545.53;2615858;36;20432;-69
2021/11/13 19:54:01;;;;;;;43.05;28.42;;;;;;;9.97;100.00;101551.16;2613943;36;20034;-70
2021/11/13 19:56:30;;;;;;;35.85;25.10;;;;;;;10.02;100.00;101551.66;2612958;31;20495;-69
2021/11/13 19:59:12;;;;;;;39.65;26.33;;;;;;;10.00;100.00;101553.59;2611088;36;20558;-70
2021/11/13 20:04:10;;;;;;;40.53;26.23;;;;;;;9.95;100.00;101543.19;2610128;36;20543;-69
2021/11/13 20:06:40;;;;;;;37.03;24.58;;;;;;;9.85;100.00;101549.34;2610649;36;20054;-69
2021/11/13 20:09:08;;;;;;;36.92;25.05;;;;;;;9.92;100.00;101550.63;2610938;36;20122;-69
2021/11/13 20:11:37;;;;;;;41.67;27.02;;;;;;;9.89;100.00;101558.91;2611154;36;20200;-69
2021/11/13 20:14:05;;;;;;;44.40;30.15;;;;;;;9.74;100.00;101553.72;2611160;36;20034;-69
2021/11/13 20:16:33;;;;;;;46.05;28.30;;;;;;;9.78;100.00;101560.56;2610825;36;20108;-70
2021/11/13 20:19:02;;;;;;;41.90;28.25;;;;;;;9.90;100.00;101566.88;2611230;36;20038;-70
2021/11/13 20:21:33;;;;;;;41.08;27.15;;;;;;;9.91;100.00;101567.72;2612070;36;20031;-72
2021/11/13 20:24:03;;;;;;;41.45;28.00;;;;;;;9.93;100.00;101569.31;2611343;36;20059;-69
2021/11/13 20:26:32;;;;;;;46.00;28.95;;;;;;;9.85;100.00;101570.88;2611816;36;20042;-72
2021/11/13 20:29:00;;;;;;;43.63;28.20;;;;;;;9.75;100.00;101570.72;2612510;36;20589;-70
2021/11/13 20:31:28;;;;;;;51.17;29.90;;;;;;;9.65;100.00;101562.47;2612087;36;20125;-72
2021/11/13 20:33:56;;;;;;;55.97;31.65;;;;;;;9.60;100.00;101575.38;2611491;36;20508;-70
2021/11/13 20:36:25;;;;;;;61.03;37.40;;;;;;;9.67;100.00;101567.72;2611683;36;20639;-70
2021/11/13 20:38:59;;;;;;;54.60;33.35;;;;;;;9.63;100.00;101583.22;2611407;36;20038;-70
2021/11/13 20:41:30;;;;;;;80.63;52.75;;;;;;;9.68;100.00;101581.03;2612222;36;20035;-69
2021/11/13 20:44:01;;;;;;;65.38;41.47;;;;;;;9.73;100.00;101591.47;2612091;36;20058;-70
2021/11/13 20:46:29;;;;;;;83.82;48.33;;;;;;;9.70;100.00;101595.25;2611944;36;20067;-69
2021/11/13 20:48:57;;;;;;;74.45;41.55;;;;;;;9.79;100.00;101607.13;2611855;36;20546;-72
2021/11/13 20:51:26;;;;;;;56.28;37.63;;;;;;;9.81;100.00;101611.44;2612557;36;20508;-72
2021/11/13 20:53:57;;;;;;;60.63;37.17;;;;;;;9.80;100.00;101617.81;2611579;36;20992;-69
2021/11/13 20:56:26;;;;;;;57.67;35.35;;;;;;;9.75;100.00;101621.78;2611727;36;20271;-70
2021/11/13 20:58:54;;;;;;;57.70;35.05;;;;;;;9.76;100.00;101616.31;2611057;31;20146;-69
2021/11/13 21:01:26;;;;;;;45.45;31.25;;;;;;;9.84;100.00;101617.56;2611127;36;20085;-69
2021/11/13 21:03:54;;;;;;;43.45;29.05;;;;;;;9.88;100.00;101625.28;2610777;36;20039;-69
2021/11/13 21:06:24;;;;;;;44.55;28.13;;;;;;;9.76;100.00;101620.78;2611772;36;20065;-68
2021/11/13 21:08:52;;;;;;;44.00;29.20;;;;;;;9.76;100.00;101627.06;2611651;36;20030;-71
2021/11/13 21:11:23;;;;;;;50.38;30.05;;;;;;;9.65;100.00;101624.28;2610579;36;20562;-72
2021/11/13 21:13:51;;;;;;;44.35;29.02;;;;;;;9.80;100.00;101638.44;2611698;36;20143;-70
2021/11/13 21:16:20;;;;;;;43.60;27.67;;;;;;;9.80;100.00;101633.94;2611694;36;20596;-69
2021/11/13 21:18:48;;;;;;;42.17;26.00;;;;;;;9.80;100.00;101638.44;2611946;36;20642;-69
2021/11/13 21:21:16;;;;;;;45.15;28.35;;;;;;;9.78;100.00;101643.06;2611775;36;20030;-71
2021/11/13 21:23:44;;;;;;;40.88;26.30;;;;;;;9.69;100.00;101641.91;2611245;36;20031;-69
2021/11/13 21:26:13;;;;;;;41.10;26.58;;;;;;;9.56;100.00;101644.63;2611425;36;21036;-69
2021/11/13 21:28:44;;;;;;;41.50;26.40;;;;;;;9.67;100.00;101643.84;2611965;36;20034;-69
2021/11/13 21:31:12;;;;;;;42.53;28.27;;;;;;;9.71;100.00;101648.03;2611777;36;20399;-69
2021/11/13 21:33:41;;;;;;;43.75;27.88;;;;;;;9.75;100.00;101646.84;2611623;36;20447;-70
2021/11/13 22:27:32;;;;;;;34.10;21.50;;;;;;;9.43;100.00;101667.97;2612450;54;20042;-70
2021/11/13 22:30:01;;;;;;;34.90;22.20;;;;;;;9.45;100.00;101674.94;2612475;36;20173;-69
2021/11/13 22:32:29;;;;;;;43.53;26.67;;;;;;;9.59;100.00;101670.41;2612053;31;20174;-71
2021/11/13 22:34:57;;;;;;;49.17;30.85;;;;;;;9.57;100.00;101680.41;2611640;36;20516;-70
2021/11/13 22:37:25;;;;;;;42.30;26.80;;;;;;;9.59;100.00;101687.41;2612578;36;20122;-70